createdAt,value
2019-03-12T00:01:11.733Z,19.62
2019-03-12T00:03:15.379Z,23.25
2019-03-12T00:05:18.948Z,19.48
2019-03-12T00:07:22.523Z,20.12
2019-03-12T00:09:26.191Z,25.08
2019-03-12T00:11:29.851Z,25.60
2019-03-12T00:13:33.588Z,23.77
2019-03-12T00:15:37.191Z,20.80
2019-03-12T00:17:40.745Z,22.98
2019-03-12T00:19:44.315Z,22.80
2019-03-12T00:21:48.004Z,23.75
2019-03-12T00:23:51.541Z,22.17
2019-03-12T00:25:55.129Z,23.57
2019-03-12T00:27:58.777Z,23.25
2019-03-12T00:30:02.374Z,23.95
2019-03-12T00:32:05.923Z,22.82
2019-03-12T00:34:09.878Z,22.17
2019-03-12T00:36:13.427Z,21.87
2019-03-12T00:38:16.996Z,22.17
2019-03-12T00:40:20.600Z,19.67
2019-03-12T00:42:24.193Z,22.07
2019-03-12T00:44:27.755Z,20.60
2019-03-12T00:46:31.696Z,23.83
2019-03-12T00:48:35.290Z,19.98
2019-03-12T00:50:38.916Z,24.00
2019-03-12T00:52:42.504Z,21.80
2019-03-12T00:54:46.079Z,22.70
2019-03-12T00:56:49.655Z,22.95
2019-03-12T00:58:53.244Z,25.60
2019-03-12T01:00:56.807Z,19.98
2019-03-12T01:03:00.396Z,24.18
2019-03-12T01:05:05.191Z,23.98
2019-03-12T01:07:08.816Z,23.67
2019-03-12T01:09:12.391Z,23.73
2019-03-12T01:11:16.040Z,24.67
2019-03-12T01:13:19.683Z,22.67
2019-03-12T01:15:23.352Z,23.15
2019-03-12T01:17:26.932Z,23.73
2019-03-12T01:19:30.515Z,25.32
2019-03-12T01:21:34.079Z,27.60
2019-03-12T01:23:37.669Z,25.00
2019-03-12T01:25:41.223Z,25.43
2019-03-12T01:27:44.903Z,22.95
2019-03-12T01:29:48.478Z,27.45
2019-03-12T01:31:52.015Z,23.55
2019-03-12T01:33:55.627Z,23.73
2019-03-12T01:35:59.184Z,27.32
2019-03-12T01:38:02.822Z,25.45
2019-03-12T01:40:11.847Z,25.17
2019-03-12T01:42:15.444Z,27.75
2019-03-12T01:44:19.009Z,28.12
2019-03-12T01:46:22.717Z,26.35
2019-03-12T01:48:26.300Z,25.08
2019-03-12T01:50:29.864Z,31.95
2019-03-12T01:52:33.430Z,24.65
2019-03-12T01:54:36.988Z,28.98
2019-03-12T01:56:40.575Z,24.50
2019-03-12T01:58:44.148Z,24.27
2019-03-12T02:00:47.768Z,29.37
2019-03-12T02:02:51.371Z,27.30
2019-03-12T02:04:54.943Z,26.15
2019-03-12T02:06:58.491Z,23.42
2019-03-12T02:09:02.081Z,24.30
2019-03-12T02:11:05.663Z,23.18
2019-03-12T02:13:09.260Z,25.02
2019-03-12T02:15:15.228Z,25.50
2019-03-12T02:17:18.851Z,25.02
2019-03-12T02:19:22.399Z,21.10
2019-03-12T02:21:25.975Z,24.43
2019-03-12T02:23:29.573Z,23.15
2019-03-12T02:25:33.126Z,22.82
2019-03-12T02:27:36.702Z,23.85
2019-03-12T02:29:40.287Z,20.90
2019-03-12T02:31:43.859Z,25.60
2019-03-12T02:33:47.426Z,23.73
2019-03-12T02:35:51.038Z,24.18
2019-03-12T02:37:54.688Z,21.95
2019-03-12T02:39:58.245Z,22.93
2019-03-12T02:42:01.821Z,22.60
2019-03-12T02:44:05.416Z,19.82
2019-03-12T02:46:08.990Z,20.23
2019-03-12T02:48:12.563Z,21.05
2019-03-12T02:50:16.517Z,21.55
2019-03-12T02:52:20.112Z,20.77
2019-03-12T02:54:23.663Z,20.90
2019-03-12T02:56:27.231Z,28.10
2019-03-12T02:58:30.804Z,21.60
2019-03-12T03:00:34.389Z,20.10
2019-03-12T03:02:37.949Z,18.90
2019-03-12T03:04:41.520Z,20.75
2019-03-12T03:06:46.724Z,21.05
2019-03-12T03:08:50.278Z,20.88
2019-03-12T03:10:53.850Z,23.92
2019-03-12T03:12:57.471Z,22.37
2019-03-12T03:15:04.488Z,23.50
2019-03-12T03:17:09.041Z,21.52
2019-03-12T03:19:12.647Z,20.90
2019-03-12T03:21:16.237Z,21.93
2019-03-12T03:23:19.814Z,21.52
2019-03-12T03:25:23.460Z,21.85
2019-03-12T03:27:29.298Z,20.57
2019-03-12T03:29:32.257Z,21.85
2019-03-12T03:31:35.832Z,20.77
2019-03-12T03:33:39.470Z,24.23
2019-03-12T03:35:42.977Z,19.57
2019-03-12T03:37:46.544Z,20.40
2019-03-12T03:39:50.173Z,18.23
2019-03-12T03:41:53.746Z,21.40
2019-03-12T03:43:57.462Z,18.98
2019-03-12T03:46:01.144Z,21.33
2019-03-12T03:48:04.853Z,22.93
2019-03-12T03:50:11.083Z,22.67
2019-03-12T03:52:14.707Z,25.40
2019-03-12T03:54:18.274Z,21.27
2019-03-12T03:56:21.822Z,21.93
2019-03-12T03:58:25.416Z,21.90
2019-03-12T04:00:29.116Z,19.98
2019-03-12T04:02:32.726Z,22.60
2019-03-12T04:04:36.278Z,21.68
2019-03-12T04:06:39.860Z,23.32
2019-03-12T04:08:43.452Z,22.82
2019-03-12T04:10:47.001Z,21.70
2019-03-12T04:12:50.645Z,23.90
2019-03-12T04:14:54.197Z,22.95
2019-03-12T04:16:57.792Z,22.80
2019-03-12T04:19:01.392Z,21.50
2019-03-12T04:21:04.982Z,24.02
2019-03-12T04:23:08.621Z,22.40
2019-03-12T04:25:12.433Z,22.75
2019-03-12T04:27:16.121Z,24.92
2019-03-12T04:29:19.816Z,23.85
2019-03-12T04:31:23.439Z,22.95
2019-03-12T04:33:59.035Z,22.20
2019-03-12T04:36:02.594Z,24.92
2019-03-12T04:38:07.261Z,22.73
2019-03-12T04:40:12.488Z,22.95
2019-03-12T04:42:16.122Z,24.63
2019-03-12T04:44:19.688Z,22.85
2019-03-12T04:46:23.283Z,20.97
2019-03-12T04:48:26.841Z,26.82
2019-03-12T04:50:30.437Z,25.30
2019-03-12T04:52:34.005Z,23.05
2019-03-12T04:54:37.565Z,21.95
2019-03-12T04:56:41.163Z,23.87
2019-03-12T04:58:44.760Z,23.62
2019-03-12T05:00:48.348Z,23.25
2019-03-12T05:02:52.806Z,23.87
2019-03-12T05:04:56.477Z,24.82
2019-03-12T05:07:00.035Z,25.85
2019-03-12T05:09:05.614Z,23.12
2019-03-12T05:11:09.212Z,26.15
2019-03-12T05:13:12.777Z,20.23
2019-03-12T05:15:19.736Z,19.20
2019-03-12T05:17:23.371Z,23.02
2019-03-12T05:19:28.991Z,21.50
2019-03-12T05:21:32.559Z,18.65
2019-03-12T05:23:36.155Z,21.00
2019-03-12T05:25:39.721Z,18.87
2019-03-12T05:27:43.522Z,21.20
2019-03-12T05:29:47.130Z,22.82
2019-03-12T05:31:50.714Z,20.97
2019-03-12T05:33:54.289Z,19.92
2019-03-12T05:35:58.050Z,22.17
2019-03-12T05:38:01.603Z,21.00
2019-03-12T05:40:10.364Z,23.87
2019-03-12T05:42:13.963Z,22.95
2019-03-12T05:44:17.576Z,22.58
2019-03-12T05:46:21.153Z,23.62
2019-03-12T05:48:24.732Z,21.85
2019-03-12T05:50:28.323Z,22.45
2019-03-12T05:52:31.921Z,24.52
2019-03-12T05:54:35.542Z,20.57
2019-03-12T05:56:39.108Z,19.07
2019-03-12T05:58:42.739Z,22.67
2019-03-12T06:00:46.337Z,21.87
2019-03-12T06:02:49.904Z,23.35
2019-03-12T06:04:53.447Z,19.52
2019-03-12T06:06:57.168Z,22.98
2019-03-12T06:09:00.721Z,20.15
2019-03-12T06:11:04.454Z,23.55
2019-03-12T06:13:08.049Z,24.02
2019-03-12T06:15:16.591Z,19.15
2019-03-12T06:17:20.158Z,16.97
2019-03-12T06:19:23.728Z,18.80
2019-03-12T06:21:27.323Z,18.92
2019-03-12T06:23:30.885Z,18.92
2019-03-12T06:25:34.444Z,22.25
2019-03-12T06:27:38.170Z,19.65
2019-03-12T06:29:41.874Z,17.27
2019-03-12T06:31:47.328Z,22.55
2019-03-12T06:33:52.491Z,16.12
2019-03-12T06:36:00.648Z,19.27
2019-03-12T06:38:05.933Z,19.17
2019-03-12T06:40:26.457Z,25.62
2019-03-12T06:42:37.254Z,19.05
2019-03-12T06:44:45.271Z,20.30
2019-03-12T06:47:02.415Z,21.45
2019-03-12T06:49:10.204Z,22.55
2019-03-12T06:51:27.501Z,20.48
2019-03-12T06:53:41.521Z,20.50
2019-03-12T06:55:52.667Z,20.37
2019-03-12T06:58:17.841Z,18.37
2019-03-12T07:00:25.723Z,14.58
2019-03-12T07:02:39.886Z,18.17
2019-03-12T07:04:57.132Z,15.83
2019-03-12T07:07:11.595Z,15.20
2019-03-12T07:09:18.124Z,16.57
2019-03-12T07:11:39.435Z,15.78
2019-03-12T07:13:47.590Z,14.50
2019-03-12T07:16:01.739Z,17.27
2019-03-12T07:18:12.884Z,18.15
2019-03-12T07:20:18.119Z,14.33
2019-03-12T07:22:23.323Z,12.93
2019-03-12T07:24:40.675Z,15.43
2019-03-12T07:26:45.883Z,13.32
2019-03-12T07:28:56.832Z,14.10
2019-03-12T07:31:07.663Z,15.48
2019-03-12T07:33:12.851Z,17.37
2019-03-12T07:35:18.064Z,17.15
2019-03-12T07:37:26.452Z,15.03
2019-03-12T07:39:34.352Z,13.13
2019-03-12T07:41:39.659Z,23.30
2019-03-12T07:43:53.470Z,18.65
2019-03-12T07:48:26.961Z,17.75
2019-03-12T07:50:35.140Z,15.95
2019-03-12T07:52:55.435Z,15.65
2019-03-12T07:55:09.579Z,16.93
2019-03-12T07:57:14.781Z,15.58
2019-03-12T07:59:20.015Z,15.15
2019-03-12T08:01:34.133Z,21.23
2019-03-12T08:03:39.367Z,15.75
2019-03-12T08:05:44.585Z,15.75
2019-03-12T08:07:49.793Z,17.87
2019-03-12T08:09:55.031Z,18.90
2019-03-12T08:12:06.075Z,19.90
2019-03-12T08:14:11.386Z,19.17
2019-03-12T08:16:16.620Z,18.50
2019-03-12T08:18:27.728Z,18.50
2019-03-12T08:20:47.856Z,18.17
2019-03-12T08:23:09.491Z,16.80
2019-03-12T08:25:20.470Z,18.80
2019-03-12T08:27:26.206Z,15.08
2019-03-12T08:29:34.345Z,15.32
2019-03-12T08:31:42.216Z,17.27
2019-03-12T08:33:52.907Z,22.73
2019-03-12T08:35:58.141Z,22.25
2019-03-12T08:38:09.251Z,15.68
2019-03-12T08:40:16.976Z,17.40
2019-03-12T08:42:22.218Z,19.80
2019-03-12T08:44:37.577Z,17.82
2019-03-12T08:46:43.045Z,17.95
2019-03-12T08:48:48.271Z,19.10
2019-03-12T08:50:56.428Z,16.97
2019-03-12T08:53:04.229Z,17.25
2019-03-12T08:55:14.581Z,15.43
2019-03-12T08:57:32.106Z,19.25
2019-03-12T08:59:55.258Z,18.05
2019-03-12T09:02:06.407Z,17.30
2019-03-12T09:04:14.334Z,17.75
2019-03-12T09:06:31.877Z,17.48
2019-03-12T09:08:37.113Z,18.12
2019-03-12T09:10:50.955Z,13.80
2019-03-12T09:15:25.083Z,16.85
2019-03-12T09:17:36.132Z,16.60
2019-03-12T09:19:57.776Z,15.40
2019-03-12T09:22:09.071Z,18.00
2019-03-12T09:24:23.229Z,23.22
2019-03-12T09:26:34.273Z,15.75
2019-03-12T09:28:42.095Z,17.67
2019-03-12T09:30:59.266Z,17.07
2019-03-12T09:33:13.166Z,16.97
2019-03-12T09:37:40.770Z,13.98
2019-03-12T09:39:57.910Z,14.28
2019-03-12T09:42:05.984Z,17.77
2019-03-12T09:44:14.086Z,14.70
2019-03-12T09:46:22.279Z,13.45
2019-03-12T09:48:30.322Z,13.53
2019-03-12T09:50:35.625Z,14.40
2019-03-12T09:52:40.856Z,14.75
2019-03-12T09:54:57.890Z,15.58
2019-03-12T09:57:08.772Z,19.50
2019-03-12T09:59:29.224Z,14.47
2019-03-12T10:01:37.159Z,15.60
2019-03-12T10:03:48.280Z,12.80
2019-03-12T10:05:53.468Z,17.48
2019-03-12T10:07:58.682Z,14.10
2019-03-12T10:10:03.993Z,13.53
2019-03-12T10:12:25.504Z,14.43
2019-03-12T10:14:48.834Z,12.90
2019-03-12T10:17:10.207Z,14.40
2019-03-12T10:19:15.376Z,12.80
2019-03-12T10:21:37.236Z,13.22
2019-03-12T10:23:51.490Z,12.05
2019-03-12T10:25:56.777Z,15.53
2019-03-12T10:28:02.173Z,13.32
2019-03-12T10:30:26.857Z,16.05
2019-03-12T10:32:41.031Z,11.38
2019-03-12T10:34:46.380Z,13.22
2019-03-12T10:37:12.491Z,13.93
2019-03-12T10:39:46.394Z,12.93
2019-03-12T10:41:51.625Z,15.35
2019-03-12T10:43:55.740Z,12.47
2019-03-12T10:46:01.065Z,12.45
2019-03-12T10:48:06.834Z,14.13
2019-03-12T10:50:12.133Z,11.15
2019-03-12T10:52:15.712Z,11.12
2019-03-12T10:56:22.083Z,11.70
2019-03-12T10:58:25.721Z,11.90
2019-03-12T11:00:29.332Z,14.20
2019-03-12T11:02:32.961Z,11.88
2019-03-12T11:04:36.546Z,14.68
2019-03-12T11:08:43.052Z,11.25
2019-03-12T11:10:57.439Z,15.63
2019-03-12T11:13:01.062Z,13.22
2019-03-12T11:15:05.786Z,13.70
2019-03-12T11:17:09.452Z,13.08
2019-03-12T11:19:13.108Z,11.43
2019-03-12T11:21:16.683Z,12.33
2019-03-12T11:25:27.679Z,12.43
2019-03-12T11:27:28.279Z,19.05
2019-03-12T11:31:34.729Z,12.75
2019-03-12T11:33:38.461Z,12.23
2019-03-12T11:35:42.099Z,11.73
2019-03-12T11:37:45.799Z,14.15
2019-03-12T11:39:49.355Z,16.32
2019-03-12T11:43:55.782Z,14.53
2019-03-12T11:48:02.147Z,10.78
2019-03-12T11:52:10.120Z,14.18
2019-03-12T11:56:16.478Z,14.47
2019-03-12T12:00:25.746Z,10.53
2019-03-12T12:02:29.338Z,10.18
2019-03-12T12:04:32.941Z,11.28
2019-03-12T12:08:39.804Z,15.83
2019-03-12T12:10:43.465Z,15.38
2019-03-12T12:12:47.129Z,13.45
2019-03-12T12:14:50.707Z,13.00
2019-03-12T12:18:57.085Z,9.90
2019-03-12T12:23:03.505Z,12.73
2019-03-12T12:25:13.244Z,13.83
2019-03-12T12:27:16.844Z,9.58
2019-03-12T12:31:23.218Z,9.28
2019-03-12T12:35:29.641Z,11.50
2019-03-12T12:37:33.226Z,11.25
2019-03-12T12:41:39.564Z,13.35
2019-03-12T12:45:46.028Z,9.65
2019-03-12T12:49:52.421Z,8.33
2019-03-12T12:53:58.771Z,8.15
2019-03-12T12:58:05.276Z,9.98
2019-03-12T13:00:14.820Z,6.92
2019-03-12T13:02:18.379Z,8.85
2019-03-12T13:06:24.836Z,9.33
2019-03-12T13:08:28.489Z,24.05
2019-03-12T13:10:33.875Z,78.17
2019-03-12T13:12:37.383Z,10.70
2019-03-12T13:16:45.481Z,10.50
2019-03-12T13:20:51.939Z,10.08
2019-03-12T13:22:55.568Z,10.45
2019-03-12T13:24:59.216Z,9.95
2019-03-12T13:27:02.783Z,12.78
2019-03-12T13:31:09.311Z,12.65
2019-03-12T13:33:13.570Z,9.60
2019-03-12T13:35:18.195Z,13.22
2019-03-12T13:37:21.769Z,9.13
2019-03-12T13:41:28.286Z,8.25
2019-03-12T13:43:32.030Z,13.28
2019-03-12T13:45:35.637Z,13.93
2019-03-12T13:47:39.245Z,10.45
2019-03-12T13:51:45.746Z,12.47
2019-03-12T13:53:49.288Z,6.00
2019-03-12T13:57:55.840Z,11.90
2019-03-12T13:59:59.387Z,7.60
2019-03-12T14:04:10.689Z,7.87
2019-03-12T14:06:11.061Z,5.50
2019-03-12T14:10:23.212Z,7.60
2019-03-12T14:12:26.852Z,7.95
2019-03-12T14:16:33.285Z,5.95
2019-03-12T14:20:45.096Z,4.92
2019-03-12T14:22:50.101Z,6.70
2019-03-12T14:24:53.927Z,6.42
2019-03-12T14:29:00.384Z,7.53
2019-03-12T14:31:04.382Z,8.68
2019-03-12T14:33:08.371Z,7.70
2019-03-12T14:35:12.219Z,11.20
2019-03-12T14:37:15.817Z,7.00
2019-03-12T14:41:22.699Z,10.65
2019-03-12T14:43:26.467Z,40.83
2019-03-12T14:45:30.766Z,44.40
2019-03-12T14:47:34.338Z,5.55
2019-03-12T14:51:55.798Z,6.20
2019-03-12T14:54:10.344Z,11.08
2019-03-12T14:56:13.944Z,9.13
2019-03-12T15:00:23.030Z,8.73
2019-03-12T15:02:26.707Z,7.33
2019-03-12T15:04:30.329Z,7.17
2019-03-12T15:08:36.760Z,7.50
2019-03-12T15:10:40.404Z,7.47
2019-03-12T15:14:46.935Z,12.35
2019-03-12T15:16:50.555Z,8.58
2019-03-12T15:20:56.932Z,6.15
2019-03-12T15:25:03.627Z,9.63
2019-03-12T15:27:07.249Z,6.97
2019-03-12T15:31:14.067Z,16.57
2019-03-12T15:33:17.619Z,11.20
2019-03-12T15:37:24.102Z,7.22
2019-03-12T15:41:30.536Z,8.25
2019-03-12T15:43:34.160Z,11.65
2019-03-12T15:45:37.725Z,8.05
2019-03-12T15:49:44.688Z,16.25
2019-03-12T15:51:48.326Z,10.05
2019-03-12T15:53:51.938Z,11.00
2019-03-12T16:00:02.574Z,9.90
2019-03-12T16:04:09.157Z,8.25
2019-03-12T16:06:12.718Z,15.30
2019-03-12T16:10:19.785Z,16.52
2019-03-12T16:12:23.503Z,16.15
2019-03-12T16:16:30.020Z,16.20
2019-03-12T16:18:33.613Z,10.72
2019-03-12T16:22:40.036Z,17.55
2019-03-12T16:24:43.678Z,17.65
2019-03-12T16:26:47.264Z,18.27
2019-03-12T16:30:53.653Z,23.12
2019-03-12T16:35:00.069Z,24.47
2019-03-12T16:39:07.008Z,15.50
2019-03-12T16:41:10.651Z,16.95
2019-03-12T16:43:14.269Z,19.15
2019-03-12T16:45:19.076Z,13.25
2019-03-12T16:47:22.665Z,18.30
2019-03-12T16:51:29.101Z,23.92
2019-03-12T16:55:35.508Z,26.45
2019-03-12T16:57:39.072Z,32.10
2019-03-12T17:01:45.588Z,36.40
2019-03-12T17:03:49.212Z,27.48
2019-03-12T17:05:53.003Z,28.52
2019-03-12T17:07:56.647Z,30.55
2019-03-12T17:10:00.474Z,24.18
2019-03-12T17:12:04.186Z,27.65
2019-03-12T17:14:07.750Z,29.77
2019-03-12T17:18:14.176Z,38.23
2019-03-12T17:22:20.822Z,28.75
2019-03-12T17:24:24.391Z,23.85
2019-03-12T17:26:27.967Z,25.50
2019-03-12T17:28:32.018Z,71.22
2019-03-12T17:30:35.569Z,67.92
2019-03-12T17:34:41.916Z,32.25
2019-03-12T17:38:48.395Z,44.50
2019-03-12T17:40:52.221Z,81.32
2019-03-12T17:42:56.287Z,27.55
2019-03-12T17:44:59.956Z,26.82
2019-03-12T17:47:03.517Z,37.38
2019-03-12T17:49:07.379Z,56.05
2019-03-12T17:51:11.063Z,62.62
2019-03-12T17:53:14.627Z,59.60
2019-03-12T17:55:18.375Z,53.30
2019-03-12T17:57:22.051Z,53.55
2019-03-12T17:59:25.621Z,61.65
2019-03-12T18:01:30.284Z,68.00
2019-03-12T18:03:34.076Z,70.83
2019-03-12T18:05:37.728Z,72.35
2019-03-12T18:07:41.309Z,82.60
2019-03-12T18:09:44.938Z,73.02
2019-03-12T18:11:48.571Z,69.32
2019-03-12T18:13:52.208Z,52.55
2019-03-12T18:15:55.785Z,46.10
2019-03-12T18:17:59.348Z,40.92
2019-03-12T18:20:03.027Z,47.33
2019-03-12T18:22:06.695Z,41.98
2019-03-12T18:24:10.286Z,45.88
2019-03-12T18:26:13.994Z,42.15
2019-03-12T18:28:17.591Z,39.67
2019-03-12T18:30:21.293Z,36.93
2019-03-12T18:32:24.892Z,37.90
2019-03-12T18:34:28.488Z,39.90
2019-03-12T18:36:32.175Z,37.85
2019-03-12T18:38:35.769Z,40.55
2019-03-12T18:40:39.458Z,38.80
2019-03-12T18:42:43.500Z,43.30
2019-03-12T18:44:47.148Z,41.23
2019-03-12T18:46:50.717Z,41.88
2019-03-12T18:48:54.438Z,42.53
2019-03-12T18:50:58.093Z,43.35
2019-03-12T18:53:02.038Z,44.25
2019-03-12T18:55:11.402Z,56.70
2019-03-12T18:57:15.173Z,63.23
2019-03-12T18:59:18.680Z,57.25
2019-03-12T19:01:22.316Z,58.28
2019-03-12T19:03:25.917Z,53.42
2019-03-12T19:05:29.542Z,47.83
2019-03-12T19:07:33.188Z,54.23
2019-03-12T19:09:36.835Z,41.00
2019-03-12T19:11:40.393Z,55.70
2019-03-12T19:13:44.205Z,45.33
2019-03-12T19:15:47.943Z,42.83
2019-03-12T19:17:51.662Z,49.48
2019-03-12T19:19:55.295Z,42.30
2019-03-12T19:21:59.034Z,38.05
2019-03-12T19:24:02.669Z,38.85
2019-03-12T19:26:09.763Z,42.25
2019-03-12T19:28:13.580Z,42.48
2019-03-12T19:30:20.855Z,49.95
2019-03-12T19:32:29.108Z,49.38
2019-03-12T19:34:32.880Z,44.70
2019-03-12T19:36:36.686Z,47.30
2019-03-12T19:38:40.461Z,53.78
2019-03-12T19:40:46.409Z,46.10
2019-03-12T19:42:50.239Z,48.13
2019-03-12T19:44:54.013Z,46.30
2019-03-12T19:46:58.057Z,45.40
2019-03-12T19:49:05.039Z,47.62
2019-03-12T19:51:09.390Z,40.92
2019-03-12T19:53:13.350Z,49.05
2019-03-12T19:55:20.096Z,41.20
2019-03-12T19:57:23.901Z,41.55
2019-03-12T19:59:27.567Z,48.33
2019-03-12T20:01:32.390Z,43.60
2019-03-12T20:03:36.043Z,43.08
2019-03-12T20:05:39.807Z,44.77
2019-03-12T20:07:43.536Z,43.63
2019-03-12T20:09:50.625Z,41.37
2019-03-12T20:12:17.075Z,39.08
2019-03-12T20:14:29.977Z,36.05
2019-03-12T20:16:45.576Z,38.08
2019-03-12T20:19:25.938Z,40.03
2019-03-12T20:21:55.183Z,43.98
2019-03-12T20:24:22.436Z,47.58
2019-03-12T20:26:41.139Z,49.33
2019-03-12T20:28:50.444Z,38.70
2019-03-12T20:31:06.081Z,36.03
2019-03-12T20:33:38.863Z,32.03
2019-03-12T20:36:01.166Z,33.13
2019-03-12T20:38:21.021Z,28.52
2019-03-12T20:40:46.647Z,33.18
2019-03-12T20:43:10.063Z,32.78
2019-03-12T20:45:25.760Z,30.08
2019-03-12T20:47:58.344Z,29.80
2019-03-12T20:50:28.093Z,29.50
2019-03-12T20:52:47.171Z,27.32
2019-03-12T20:55:31.154Z,24.05
2019-03-12T20:57:38.011Z,20.30
2019-03-12T20:59:58.510Z,22.45
2019-03-12T21:02:20.608Z,20.88
2019-03-12T21:04:39.252Z,22.20
2019-03-12T21:06:52.053Z,21.82
2019-03-12T21:09:17.294Z,22.48
2019-03-12T21:11:54.595Z,22.45
2019-03-12T21:14:36.110Z,26.35
2019-03-12T21:16:54.500Z,22.35
2019-03-12T21:19:30.724Z,26.00
2019-03-12T21:22:04.350Z,31.60
2019-03-12T21:24:23.059Z,28.35
2019-03-12T21:26:45.172Z,26.42
2019-03-12T21:29:08.543Z,28.95
2019-03-12T21:31:14.838Z,21.12
2019-03-12T21:33:19.831Z,23.20
2019-03-12T21:35:23.473Z,25.00
2019-03-12T21:37:27.122Z,26.57
2019-03-12T21:39:30.868Z,23.10
2019-03-12T21:41:34.806Z,23.77
2019-03-12T21:43:38.719Z,22.90
2019-03-12T21:45:42.415Z,24.25
2019-03-12T21:47:46.079Z,22.60
2019-03-12T21:49:49.650Z,21.55
2019-03-12T21:51:53.970Z,20.43
2019-03-12T21:54:00.378Z,25.50
2019-03-12T21:56:04.131Z,36.48
2019-03-12T21:58:07.796Z,32.83
2019-03-12T22:00:16.943Z,29.45
2019-03-12T22:02:20.580Z,25.57
2019-03-12T22:04:24.177Z,23.35
2019-03-12T22:06:27.853Z,25.23
2019-03-12T22:08:31.531Z,24.43
2019-03-12T22:10:35.199Z,23.27
2019-03-12T22:12:39.287Z,24.80
2019-03-12T22:14:42.904Z,23.27
2019-03-12T22:16:48.166Z,25.70
2019-03-12T22:18:51.834Z,25.08
2019-03-12T22:20:55.449Z,39.30
2019-03-12T22:23:09.715Z,38.95
2019-03-12T22:25:13.653Z,35.70
2019-03-12T22:27:17.324Z,39.13
2019-03-12T22:29:22.491Z,30.72
2019-03-12T22:31:26.097Z,32.58
2019-03-12T22:33:29.666Z,31.85
2019-03-12T22:35:33.249Z,26.48
2019-03-12T22:37:36.867Z,23.80
2019-03-12T22:39:40.440Z,22.05
2019-03-12T22:41:43.979Z,22.80
2019-03-12T22:43:47.557Z,24.55
2019-03-12T22:45:51.130Z,29.27
2019-03-12T22:47:54.697Z,29.67
2019-03-12T22:49:58.290Z,30.50
2019-03-12T22:52:01.874Z,32.28
2019-03-12T22:54:05.446Z,30.92
2019-03-12T22:56:09.019Z,29.72
2019-03-12T22:58:12.616Z,29.55
2019-03-12T23:00:20.960Z,27.07
2019-03-12T23:02:24.515Z,27.27
2019-03-12T23:04:30.845Z,26.87
2019-03-12T23:06:34.424Z,27.40
2019-03-12T23:08:37.990Z,26.85
2019-03-12T23:10:41.808Z,27.42
2019-03-12T23:12:45.383Z,19.12
2019-03-12T23:14:48.991Z,21.40
2019-03-12T23:16:52.621Z,19.57
2019-03-12T23:18:56.168Z,19.17
2019-03-12T23:20:59.772Z,14.85
2019-03-12T23:23:03.400Z,14.47
2019-03-12T23:25:08.434Z,12.53
2019-03-12T23:27:12.556Z,14.53
2019-03-12T23:29:16.399Z,13.75
2019-03-12T23:31:20.277Z,14.58
